sensor_id;sensor_type;location;lat;lon;timestamp;pressure;altitude;pressure_sealevel;temperature;humidity
81997;BME280;71500;50.806;8.774;2023-08-21T00:01:56;100308.48;;;21.76;70.98
81997;BME280;71500;50.806;8.774;2023-08-21T00:04:28;100303.98;;;21.72;70.98
81997;BME280;71500;50.806;8.774;2023-08-21T00:06:59;100298.33;;;21.70;71.09
81997;BME280;71500;50.806;8.774;2023-08-21T00:09:30;100292.15;;;21.68;71.06
81997;BME280;71500;50.806;8.774;2023-08-21T00:12:02;100293.33;;;21.66;71.07
81997;BME280;71500;50.806;8.774;2023-08-21T00:14:33;100294.95;;;21.66;71.33
81997;BME280;71500;50.806;8.774;2023-08-21T00:17:04;100290.90;;;21.66;71.41
81997;BME280;71500;50.806;8.774;2023-08-21T00:19:36;100289.52;;;21.65;71.51
81997;BME280;71500;50.806;8.774;2023-08-21T00:22:07;100287.45;;;21.61;71.55
81997;BME280;71500;50.806;8.774;2023-08-21T00:24:39;100289.23;;;21.57;71.63
81997;BME280;71500;50.806;8.774;2023-08-21T00:27:10;100286.23;;;21.55;71.56
81997;BME280;71500;50.806;8.774;2023-08-21T00:29:42;100288.55;;;21.54;71.82
81997;BME280;71500;50.806;8.774;2023-08-21T00:32:14;100295.83;;;21.49;71.96
81997;BME280;71500;50.806;8.774;2023-08-21T00:34:46;100291.73;;;21.43;72.10
81997;BME280;71500;50.806;8.774;2023-08-21T00:37:17;100293.52;;;21.38;72.14
81997;BME280;71500;50.806;8.774;2023-08-21T00:39:49;100291.72;;;21.33;72.34
81997;BME280;71500;50.806;8.774;2023-08-21T00:42:21;100293.17;;;21.30;72.50
81997;BME280;71500;50.806;8.774;2023-08-21T00:44:52;100294.96;;;21.29;72.51
81997;BME280;71500;50.806;8.774;2023-08-21T00:47:24;100291.30;;;21.27;72.70
81997;BME280;71500;50.806;8.774;2023-08-21T00:49:56;100289.61;;;21.24;72.77
81997;BME280;71500;50.806;8.774;2023-08-21T00:52:27;100289.10;;;21.23;72.91
81997;BME280;71500;50.806;8.774;2023-08-21T00:54:59;100288.53;;;21.21;72.82
81997;BME280;71500;50.806;8.774;2023-08-21T00:57:31;100291.04;;;21.20;72.88
81997;BME280;71500;50.806;8.774;2023-08-21T01:00:03;100285.33;;;21.17;72.97
81997;BME280;71500;50.806;8.774;2023-08-21T01:02:35;100284.29;;;21.14;73.09
81997;BME280;71500;50.806;8.774;2023-08-21T01:05:07;100286.02;;;21.12;73.22
81997;BME280;71500;50.806;8.774;2023-08-21T01:07:44;100288.69;;;21.08;73.15
81997;BME280;71500;50.806;8.774;2023-08-21T01:10:25;100292.67;;;21.05;73.29
81997;BME280;71500;50.806;8.774;2023-08-21T01:13:09;100294.90;;;21.03;73.37
81997;BME280;71500;50.806;8.774;2023-08-21T01:15:44;100301.08;;;21.00;73.56
81997;BME280;71500;50.806;8.774;2023-08-21T01:18:17;100302.70;;;20.95;73.52
81997;BME280;71500;50.806;8.774;2023-08-21T01:20:48;100305.20;;;20.93;73.59
81997;BME280;71500;50.806;8.774;2023-08-21T01:23:33;100305.19;;;20.91;73.58
81997;BME280;71500;50.806;8.774;2023-08-21T01:26:05;100310.98;;;20.88;73.56
81997;BME280;71500;50.806;8.774;2023-08-21T01:28:36;100308.34;;;20.86;73.68
81997;BME280;71500;50.806;8.774;2023-08-21T01:31:11;100313.21;;;20.85;73.72
81997;BME280;71500;50.806;8.774;2023-08-21T01:33:51;100317.24;;;20.83;73.75
81997;BME280;71500;50.806;8.774;2023-08-21T01:36:24;100321.13;;;20.81;73.87
81997;BME280;71500;50.806;8.774;2023-08-21T01:38:56;100317.60;;;20.78;73.96
81997;BME280;71500;50.806;8.774;2023-08-21T01:41:27;100324.41;;;20.77;73.81
81997;BME280;71500;50.806;8.774;2023-08-21T01:43:58;100314.76;;;20.72;73.85
81997;BME280;71500;50.806;8.774;2023-08-21T01:46:30;100320.10;;;20.79;73.83
81997;BME280;71500;50.806;8.774;2023-08-21T01:49:01;100319.36;;;20.79;73.77
81997;BME280;71500;50.806;8.774;2023-08-21T01:51:32;100322.41;;;20.78;73.88
81997;BME280;71500;50.806;8.774;2023-08-21T01:54:04;100319.61;;;20.77;73.76
81997;BME280;71500;50.806;8.774;2023-08-21T01:56:35;100315.19;;;20.73;73.81
81997;BME280;71500;50.806;8.774;2023-08-21T01:59:07;100311.82;;;20.70;73.74
81997;BME280;71500;50.806;8.774;2023-08-21T02:01:38;100312.33;;;20.70;73.96
81997;BME280;71500;50.806;8.774;2023-08-21T02:04:10;100312.20;;;20.70;73.84
81997;BME280;71500;50.806;8.774;2023-08-21T02:06:41;100312.13;;;20.69;73.84
81997;BME280;71500;50.806;8.774;2023-08-21T02:09:14;100314.65;;;20.67;73.85
81997;BME280;71500;50.806;8.774;2023-08-21T02:11:45;100308.27;;;20.65;73.76
81997;BME280;71500;50.806;8.774;2023-08-21T02:14:17;100307.23;;;20.63;73.71
81997;BME280;71500;50.806;8.774;2023-08-21T02:16:48;100309.70;;;20.62;73.64
81997;BME280;71500;50.806;8.774;2023-08-21T02:19:19;100311.58;;;20.61;73.79
81997;BME280;71500;50.806;8.774;2023-08-21T02:21:51;100312.67;;;20.63;73.69
81997;BME280;71500;50.806;8.774;2023-08-21T02:24:22;100309.21;;;20.62;73.68
81997;BME280;71500;50.806;8.774;2023-08-21T02:26:53;100305.86;;;20.61;73.64
81997;BME280;71500;50.806;8.774;2023-08-21T02:29:25;100306.77;;;20.60;73.66
81997;BME280;71500;50.806;8.774;2023-08-21T02:31:56;100305.61;;;20.57;73.80
81997;BME280;71500;50.806;8.774;2023-08-21T02:34:27;100306.34;;;20.56;73.74
81997;BME280;71500;50.806;8.774;2023-08-21T02:36:59;100306.92;;;20.52;73.86
81997;BME280;71500;50.806;8.774;2023-08-21T02:39:30;100306.14;;;20.50;73.72
81997;BME280;71500;50.806;8.774;2023-08-21T02:42:02;100310.38;;;20.49;73.72
81997;BME280;71500;50.806;8.774;2023-08-21T02:44:33;100306.94;;;20.48;73.91
81997;BME280;71500;50.806;8.774;2023-08-21T02:47:05;100310.76;;;20.48;73.83
81997;BME280;71500;50.806;8.774;2023-08-21T02:49:36;100308.76;;;20.45;73.78
81997;BME280;71500;50.806;8.774;2023-08-21T02:52:08;100310.41;;;20.43;73.90
81997;BME280;71500;50.806;8.774;2023-08-21T02:54:39;100307.70;;;20.40;73.89
81997;BME280;71500;50.806;8.774;2023-08-21T02:57:11;100303.45;;;20.38;73.92
81997;BME280;71500;50.806;8.774;2023-08-21T02:59:42;100304.30;;;20.39;73.96
81997;BME280;71500;50.806;8.774;2023-08-21T03:02:13;100307.12;;;20.38;73.89
81997;BME280;71500;50.806;8.774;2023-08-21T03:04:45;100310.38;;;20.36;73.88
81997;BME280;71500;50.806;8.774;2023-08-21T03:07:16;100311.89;;;20.37;74.08
81997;BME280;71500;50.806;8.774;2023-08-21T03:09:49;100307.80;;;20.35;73.99
81997;BME280;71500;50.806;8.774;2023-08-21T03:12:21;100312.88;;;20.34;74.09
81997;BME280;71500;50.806;8.774;2023-08-21T03:14:52;100314.65;;;20.32;74.07
81997;BME280;71500;50.806;8.774;2023-08-21T03:17:24;100306.91;;;20.32;74.11
81997;BME280;71500;50.806;8.774;2023-08-21T03:19:56;100302.52;;;20.30;74.19
81997;BME280;71500;50.806;8.774;2023-08-21T03:22:27;100300.92;;;20.29;74.17
81997;BME280;71500;50.806;8.774;2023-08-21T03:24:58;100304.11;;;20.29;74.21
81997;BME280;71500;50.806;8.774;2023-08-21T03:27:30;100297.76;;;20.27;74.09
81997;BME280;71500;50.806;8.774;2023-08-21T03:30:01;100300.20;;;20.27;73.94
81997;BME280;71500;50.806;8.774;2023-08-21T03:32:33;100300.02;;;20.25;74.04
81997;BME280;71500;50.806;8.774;2023-08-21T03:35:07;100294.66;;;20.23;74.07
81997;BME280;71500;50.806;8.774;2023-08-21T03:37:38;100296.40;;;20.23;74.10
81997;BME280;71500;50.806;8.774;2023-08-21T03:40:11;100297.66;;;20.21;74.12
81997;BME280;71500;50.806;8.774;2023-08-21T03:42:42;100298.80;;;20.19;74.16
81997;BME280;71500;50.806;8.774;2023-08-21T03:45:14;100296.98;;;20.16;74.38
81997;BME280;71500;50.806;8.774;2023-08-21T03:47:45;100302.67;;;20.14;74.19
81997;BME280;71500;50.806;8.774;2023-08-21T03:50:17;100299.84;;;20.10;74.24
81997;BME280;71500;50.806;8.774;2023-08-21T03:52:48;100300.02;;;20.09;74.42
81997;BME280;71500;50.806;8.774;2023-08-21T03:55:19;100306.36;;;20.10;74.37
81997;BME280;71500;50.806;8.774;2023-08-21T03:57:51;100306.16;;;20.10;74.34
81997;BME280;71500;50.806;8.774;2023-08-21T04:00:22;100300.21;;;20.10;74.39
81997;BME280;71500;50.806;8.774;2023-08-21T04:02:54;100299.63;;;20.07;74.55
81997;BME280;71500;50.806;8.774;2023-08-21T04:05:25;100300.78;;;20.07;74.56
81997;BME280;71500;50.806;8.774;2023-08-21T04:07:57;100303.88;;;20.05;74.56
81997;BME280;71500;50.806;8.774;2023-08-21T04:10:28;100304.53;;;20.05;74.61
81997;BME280;71500;50.806;8.774;2023-08-21T04:12:59;100304.66;;;20.05;74.66
81997;BME280;71500;50.806;8.774;2023-08-21T04:15:35;100302.61;;;20.04;74.63
81997;BME280;71500;50.806;8.774;2023-08-21T04:18:07;100301.46;;;20.05;74.46
81997;BME280;71500;50.806;8.774;2023-08-21T04:20:39;100303.84;;;20.03;74.56
81997;BME280;71500;50.806;8.774;2023-08-21T04:23:10;100307.98;;;20.01;74.72
81997;BME280;71500;50.806;8.774;2023-08-21T04:25:41;100304.48;;;19.99;74.71
81997;BME280;71500;50.806;8.774;2023-08-21T04:28:13;100302.70;;;19.97;74.67
81997;BME280;71500;50.806;8.774;2023-08-21T04:30:44;100302.63;;;19.98;74.59
81997;BME280;71500;50.806;8.774;2023-08-21T04:33:16;100309.04;;;19.95;74.66
81997;BME280;71500;50.806;8.774;2023-08-21T04:35:47;100309.34;;;19.93;74.77
81997;BME280;71500;50.806;8.774;2023-08-21T04:38:18;100309.98;;;19.91;74.77
81997;BME280;71500;50.806;8.774;2023-08-21T04:40:50;100312.47;;;19.90;74.68
81997;BME280;71500;50.806;8.774;2023-08-21T04:43:21;100312.67;;;19.86;74.77
81997;BME280;71500;50.806;8.774;2023-08-21T04:45:53;100314.77;;;19.85;74.90
81997;BME280;71500;50.806;8.774;2023-08-21T04:48:25;100310.26;;;19.84;74.95
81997;BME280;71500;50.806;8.774;2023-08-21T04:50:56;100307.52;;;19.83;74.88
81997;BME280;71500;50.806;8.774;2023-08-21T04:53:27;100309.44;;;19.82;75.00
81997;BME280;71500;50.806;8.774;2023-08-21T04:56:00;100313.96;;;19.82;75.13
81997;BME280;71500;50.806;8.774;2023-08-21T04:58:33;100317.84;;;19.81;75.19
81997;BME280;71500;50.806;8.774;2023-08-21T05:01:05;100319.76;;;19.78;75.15
81997;BME280;71500;50.806;8.774;2023-08-21T05:03:37;100323.63;;;19.78;75.14
81997;BME280;71500;50.806;8.774;2023-08-21T05:06:08;100323.28;;;19.77;75.09
81997;BME280;71500;50.806;8.774;2023-08-21T05:08:39;100328.31;;;19.78;75.06
81997;BME280;71500;50.806;8.774;2023-08-21T05:11:11;100329.90;;;19.78;75.16
81997;BME280;71500;50.806;8.774;2023-08-21T05:13:42;100330.17;;;19.77;75.19
81997;BME280;71500;50.806;8.774;2023-08-21T05:16:13;100331.88;;;19.77;75.22
81997;BME280;71500;50.806;8.774;2023-08-21T05:18:45;100329.94;;;19.75;75.29
81997;BME280;71500;50.806;8.774;2023-08-21T05:21:16;100334.01;;;19.75;75.32
81997;BME280;71500;50.806;8.774;2023-08-21T05:23:48;100335.12;;;19.77;75.34
81997;BME280;71500;50.806;8.774;2023-08-21T05:26:20;100332.59;;;19.77;75.32
81997;BME280;71500;50.806;8.774;2023-08-21T05:28:51;100337.88;;;19.78;75.38
81997;BME280;71500;50.806;8.774;2023-08-21T05:31:22;100337.02;;;19.79;75.25
81997;BME280;71500;50.806;8.774;2023-08-21T05:33:54;100335.02;;;19.80;75.28
81997;BME280;71500;50.806;8.774;2023-08-21T05:36:25;100338.77;;;19.81;75.39
81997;BME280;71500;50.806;8.774;2023-08-21T05:38:57;100340.38;;;19.82;75.31
81997;BME280;71500;50.806;8.774;2023-08-21T05:41:28;100339.92;;;19.85;75.18
81997;BME280;71500;50.806;8.774;2023-08-21T05:44:00;100339.66;;;19.87;75.14
81997;BME280;71500;50.806;8.774;2023-08-21T05:46:31;100342.26;;;19.88;75.13
81997;BME280;71500;50.806;8.774;2023-08-21T05:49:03;100340.36;;;19.88;75.18
81997;BME280;71500;50.806;8.774;2023-08-21T05:51:34;100336.96;;;19.90;75.08
81997;BME280;71500;50.806;8.774;2023-08-21T05:54:05;100336.56;;;19.90;75.06
81997;BME280;71500;50.806;8.774;2023-08-21T05:56:37;100337.86;;;19.93;75.09
81997;BME280;71500;50.806;8.774;2023-08-21T05:59:10;100340.77;;;19.95;74.91
81997;BME280;71500;50.806;8.774;2023-08-21T06:01:42;100342.55;;;20.00;74.38
81997;BME280;71500;50.806;8.774;2023-08-21T06:04:14;100338.85;;;20.02;74.35
81997;BME280;71500;50.806;8.774;2023-08-21T06:06:45;100339.56;;;20.05;74.12
81997;BME280;71500;50.806;8.774;2023-08-21T06:09:17;100337.86;;;20.08;73.86
81997;BME280;71500;50.806;8.774;2023-08-21T06:11:48;100337.90;;;20.10;73.74
81997;BME280;71500;50.806;8.774;2023-08-21T06:14:19;100341.11;;;20.13;73.67
81997;BME280;71500;50.806;8.774;2023-08-21T06:17:02;100340.29;;;20.16;73.56
81997;BME280;71500;50.806;8.774;2023-08-21T06:19:33;100345.41;;;20.20;73.49
81997;BME280;71500;50.806;8.774;2023-08-21T06:22:06;100346.12;;;20.24;73.28
81997;BME280;71500;50.806;8.774;2023-08-21T06:24:38;100344.46;;;20.29;73.16
81997;BME280;71500;50.806;8.774;2023-08-21T06:27:09;100351.34;;;20.32;72.98
81997;BME280;71500;50.806;8.774;2023-08-21T06:29:41;100348.70;;;20.36;73.06
81997;BME280;71500;50.806;8.774;2023-08-21T06:32:12;100348.19;;;20.38;72.76
81997;BME280;71500;50.806;8.774;2023-08-21T06:34:43;100346.73;;;20.40;72.90
81997;BME280;71500;50.806;8.774;2023-08-21T06:37:15;100347.60;;;20.43;72.73
81997;BME280;71500;50.806;8.774;2023-08-21T06:39:46;100346.86;;;20.46;72.70
81997;BME280;71500;50.806;8.774;2023-08-21T06:42:18;100346.77;;;20.51;72.79
81997;BME280;71500;50.806;8.774;2023-08-21T06:44:49;100349.09;;;20.56;72.59
81997;BME280;71500;50.806;8.774;2023-08-21T06:47:20;100352.42;;;20.61;72.61
81997;BME280;71500;50.806;8.774;2023-08-21T06:49:52;100352.17;;;20.64;72.51
81997;BME280;71500;50.806;8.774;2023-08-21T06:52:23;100345.19;;;20.68;72.31
81997;BME280;71500;50.806;8.774;2023-08-21T06:54:55;100349.36;;;20.71;72.40
81997;BME280;71500;50.806;8.774;2023-08-21T06:57:26;100345.12;;;20.75;72.28
81997;BME280;71500;50.806;8.774;2023-08-21T06:59:57;100347.11;;;20.78;72.56
81997;BME280;71500;50.806;8.774;2023-08-21T07:02:29;100346.73;;;20.81;72.47
81997;BME280;71500;50.806;8.774;2023-08-21T07:05:01;100343.83;;;20.84;72.42
81997;BME280;71500;50.806;8.774;2023-08-21T07:07:31;100348.73;;;20.89;72.44
81997;BME280;71500;50.806;8.774;2023-08-21T07:10:03;100352.24;;;20.94;72.39
81997;BME280;71500;50.806;8.774;2023-08-21T07:12:35;100351.45;;;20.99;72.48
81997;BME280;71500;50.806;8.774;2023-08-21T07:15:09;100347.48;;;21.02;72.51
81997;BME280;71500;50.806;8.774;2023-08-21T07:17:40;100348.23;;;21.07;72.47
81997;BME280;71500;50.806;8.774;2023-08-21T07:20:12;100347.61;;;21.10;72.76
81997;BME280;71500;50.806;8.774;2023-08-21T07:22:44;100348.51;;;21.14;72.98
81997;BME280;71500;50.806;8.774;2023-08-21T07:25:15;100346.15;;;21.16;72.76
81997;BME280;71500;50.806;8.774;2023-08-21T07:27:48;100349.02;;;21.19;72.61
81997;BME280;71500;50.806;8.774;2023-08-21T07:30:20;100350.39;;;21.22;72.58
81997;BME280;71500;50.806;8.774;2023-08-21T07:32:54;100345.52;;;21.27;72.54
81997;BME280;71500;50.806;8.774;2023-08-21T07:35:25;100347.99;;;21.31;72.41
81997;BME280;71500;50.806;8.774;2023-08-21T07:37:57;100345.71;;;21.35;72.17
81997;BME280;71500;50.806;8.774;2023-08-21T07:40:28;100344.33;;;21.39;72.18
81997;BME280;71500;50.806;8.774;2023-08-21T07:43:00;100343.25;;;21.43;71.88
81997;BME280;71500;50.806;8.774;2023-08-21T07:45:31;100346.21;;;21.47;72.18
81997;BME280;71500;50.806;8.774;2023-08-21T07:48:04;100340.33;;;21.50;72.14
81997;BME280;71500;50.806;8.774;2023-08-21T07:50:52;100337.81;;;21.53;72.12
81997;BME280;71500;50.806;8.774;2023-08-21T07:53:24;100331.34;;;21.56;71.99
81997;BME280;71500;50.806;8.774;2023-08-21T07:55:56;100332.04;;;21.59;72.21
81997;BME280;71500;50.806;8.774;2023-08-21T07:58:27;100329.87;;;21.64;72.29
81997;BME280;71500;50.806;8.774;2023-08-21T08:00:59;100332.31;;;21.70;72.36
81997;BME280;71500;50.806;8.774;2023-08-21T08:03:31;100332.31;;;21.74;72.52
81997;BME280;71500;50.806;8.774;2023-08-21T08:06:03;100331.84;;;21.76;72.13
81997;BME280;71500;50.806;8.774;2023-08-21T08:08:37;100327.78;;;21.78;72.33
81997;BME280;71500;50.806;8.774;2023-08-21T08:11:08;100325.45;;;21.81;72.33
81997;BME280;71500;50.806;8.774;2023-08-21T08:13:40;100326.33;;;21.84;72.10
81997;BME280;71500;50.806;8.774;2023-08-21T08:16:11;100324.91;;;21.87;72.26
81997;BME280;71500;50.806;8.774;2023-08-21T08:18:43;100310.41;;;21.84;72.39
81997;BME280;71500;50.806;8.774;2023-08-21T08:21:14;100316.29;;;21.93;72.48
81997;BME280;71500;50.806;8.774;2023-08-21T08:23:46;100315.88;;;21.98;72.56
81997;BME280;71500;50.806;8.774;2023-08-21T08:26:17;100313.81;;;22.01;72.64
81997;BME280;71500;50.806;8.774;2023-08-21T08:28:49;100315.52;;;22.05;72.65
81997;BME280;71500;50.806;8.774;2023-08-21T08:31:21;100312.36;;;22.06;73.07
81997;BME280;71500;50.806;8.774;2023-08-21T08:33:54;100312.98;;;22.10;72.52
81997;BME280;71500;50.806;8.774;2023-08-21T08:36:25;100311.06;;;22.12;72.53
81997;BME280;71500;50.806;8.774;2023-08-21T08:38:56;100310.45;;;22.14;72.62
81997;BME280;71500;50.806;8.774;2023-08-21T08:41:37;100310.52;;;22.18;72.99
81997;BME280;71500;50.806;8.774;2023-08-21T08:44:09;100307.06;;;22.18;73.32
81997;BME280;71500;50.806;8.774;2023-08-21T08:46:41;100313.65;;;22.23;73.31
81997;BME280;71500;50.806;8.774;2023-08-21T08:49:13;100312.52;;;22.26;73.21
81997;BME280;71500;50.806;8.774;2023-08-21T08:51:45;100310.52;;;22.29;73.10
81997;BME280;71500;50.806;8.774;2023-08-21T08:54:21;100309.13;;;22.32;73.21
81997;BME280;71500;50.806;8.774;2023-08-21T08:56:54;100309.35;;;22.34;73.47
81997;BME280;71500;50.806;8.774;2023-08-21T08:59:26;100308.40;;;22.35;73.23
81997;BME280;71500;50.806;8.774;2023-08-21T09:01:56;100303.98;;;22.37;73.54
81997;BME280;71500;50.806;8.774;2023-08-21T09:04:28;100300.77;;;22.38;73.50
81997;BME280;71500;50.806;8.774;2023-08-21T09:07:08;100299.33;;;22.39;73.57
81997;BME280;71500;50.806;8.774;2023-08-21T09:09:41;100300.02;;;22.44;74.16
81997;BME280;71500;50.806;8.774;2023-08-21T09:12:16;100294.60;;;22.46;73.84
81997;BME280;71500;50.806;8.774;2023-08-21T09:14:46;100297.04;;;22.48;73.66
81997;BME280;71500;50.806;8.774;2023-08-21T09:17:18;100298.86;;;22.51;73.45
81997;BME280;71500;50.806;8.774;2023-08-21T09:19:49;100294.31;;;22.53;73.20
81997;BME280;71500;50.806;8.774;2023-08-21T09:22:21;100297.34;;;22.55;73.28
81997;BME280;71500;50.806;8.774;2023-08-21T09:25:03;100297.13;;;22.58;73.56
81997;BME280;71500;50.806;8.774;2023-08-21T09:27:39;100292.38;;;22.59;72.85
81997;BME280;71500;50.806;8.774;2023-08-21T09:30:12;100291.30;;;22.63;72.94
81997;BME280;71500;50.806;8.774;2023-08-21T09:32:57;100288.67;;;22.71;72.30
81997;BME280;71500;50.806;8.774;2023-08-21T09:35:33;100288.67;;;22.82;72.80
81997;BME280;71500;50.806;8.774;2023-08-21T09:38:05;100288.18;;;22.90;72.25
81997;BME280;71500;50.806;8.774;2023-08-21T09:40:40;100290.71;;;22.96;72.33
81997;BME280;71500;50.806;8.774;2023-08-21T09:43:12;100286.76;;;23.01;71.75
81997;BME280;71500;50.806;8.774;2023-08-21T09:45:46;100284.84;;;23.13;71.61
81997;BME280;71500;50.806;8.774;2023-08-21T09:48:19;100280.84;;;23.21;72.42
81997;BME280;71500;50.806;8.774;2023-08-21T09:50:51;100282.41;;;23.28;71.80
81997;BME280;71500;50.806;8.774;2023-08-21T09:53:24;100277.32;;;23.34;71.16
81997;BME280;71500;50.806;8.774;2023-08-21T09:55:54;100276.36;;;23.41;71.64
81997;BME280;71500;50.806;8.774;2023-08-21T09:58:26;100274.13;;;23.48;71.31
81997;BME280;71500;50.806;8.774;2023-08-21T10:00:59;100270.78;;;23.52;72.00
81997;BME280;71500;50.806;8.774;2023-08-21T10:03:31;100274.85;;;23.57;71.98
81997;BME280;71500;50.806;8.774;2023-08-21T10:06:03;100275.77;;;23.60;71.89
81997;BME280;71500;50.806;8.774;2023-08-21T10:08:38;100277.08;;;23.62;72.27
81997;BME280;71500;50.806;8.774;2023-08-21T10:11:11;100272.43;;;23.63;71.79
81997;BME280;71500;50.806;8.774;2023-08-21T10:13:43;100271.04;;;23.63;70.91
81997;BME280;71500;50.806;8.774;2023-08-21T10:16:15;100266.58;;;23.67;69.20
81997;BME280;71500;50.806;8.774;2023-08-21T10:18:47;100267.59;;;23.77;68.72
81997;BME280;71500;50.806;8.774;2023-08-21T10:21:20;100264.14;;;23.87;69.20
81997;BME280;71500;50.806;8.774;2023-08-21T10:23:54;100267.25;;;23.97;68.85
81997;BME280;71500;50.806;8.774;2023-08-21T10:26:27;100269.41;;;24.06;68.23
81997;BME280;71500;50.806;8.774;2023-08-21T10:29:04;100262.39;;;24.18;66.21
81997;BME280;71500;50.806;8.774;2023-08-21T10:31:39;100255.87;;;24.34;66.49
81997;BME280;71500;50.806;8.774;2023-08-21T10:34:12;100255.51;;;24.48;66.21
81997;BME280;71500;50.806;8.774;2023-08-21T10:37:10;100252.95;;;24.63;66.66
81997;BME280;71500;50.806;8.774;2023-08-21T10:39:56;100255.52;;;24.76;67.31
81997;BME280;71500;50.806;8.774;2023-08-21T10:42:40;100247.73;;;24.85;67.67
81997;BME280;71500;50.806;8.774;2023-08-21T10:45:13;100242.18;;;24.89;65.54
81997;BME280;71500;50.806;8.774;2023-08-21T10:47:44;100248.80;;;24.98;64.62
81997;BME280;71500;50.806;8.774;2023-08-21T10:50:17;100243.39;;;25.06;65.25
81997;BME280;71500;50.806;8.774;2023-08-21T10:52:50;100240.92;;;25.12;65.82
81997;BME280;71500;50.806;8.774;2023-08-21T10:55:22;100245.27;;;25.18;63.53
81997;BME280;71500;50.806;8.774;2023-08-21T10:57:53;100241.96;;;25.28;62.93
81997;BME280;71500;50.806;8.774;2023-08-21T11:00:25;100241.37;;;25.40;62.92
81997;BME280;71500;50.806;8.774;2023-08-21T11:02:56;100235.61;;;25.48;62.47
81997;BME280;71500;50.806;8.774;2023-08-21T11:05:28;100236.77;;;25.57;63.94
81997;BME280;71500;50.806;8.774;2023-08-21T11:07:59;100237.02;;;25.61;62.31
81997;BME280;71500;50.806;8.774;2023-08-21T11:10:32;100231.70;;;25.69;60.41
81997;BME280;71500;50.806;8.774;2023-08-21T11:13:07;100227.23;;;25.77;62.14
81997;BME280;71500;50.806;8.774;2023-08-21T11:15:39;100233.88;;;25.85;63.20
81997;BME280;71500;50.806;8.774;2023-08-21T11:18:10;100231.95;;;25.90;63.83
81997;BME280;71500;50.806;8.774;2023-08-21T11:20:42;100237.16;;;25.90;64.21
81997;BME280;71500;50.806;8.774;2023-08-21T11:23:13;100240.45;;;25.89;62.67
81997;BME280;71500;50.806;8.774;2023-08-21T11:25:45;100238.67;;;25.88;63.12
81997;BME280;71500;50.806;8.774;2023-08-21T11:28:18;100239.94;;;25.88;61.04
81997;BME280;71500;50.806;8.774;2023-08-21T11:30:50;100239.27;;;25.93;59.90
81997;BME280;71500;50.806;8.774;2023-08-21T11:33:21;100238.88;;;25.98;61.24
81997;BME280;71500;50.806;8.774;2023-08-21T11:35:53;100237.64;;;26.00;61.51
81997;BME280;71500;50.806;8.774;2023-08-21T11:38:28;100237.25;;;26.01;60.84
81997;BME280;71500;50.806;8.774;2023-08-21T11:41:01;100235.69;;;26.03;61.31
81997;BME280;71500;50.806;8.774;2023-08-21T11:43:37;100233.39;;;26.03;59.60
81997;BME280;71500;50.806;8.774;2023-08-21T11:46:09;100236.34;;;26.08;59.32
81997;BME280;71500;50.806;8.774;2023-08-21T11:48:42;100231.77;;;26.13;58.62
81997;BME280;71500;50.806;8.774;2023-08-21T11:51:13;100227.13;;;26.17;60.19
81997;BME280;71500;50.806;8.774;2023-08-21T11:53:48;100226.10;;;26.17;61.19
81997;BME280;71500;50.806;8.774;2023-08-21T11:56:20;100226.90;;;26.15;61.68
81997;BME280;71500;50.806;8.774;2023-08-21T11:58:54;100227.56;;;26.13;61.02
81997;BME280;71500;50.806;8.774;2023-08-21T12:01:25;100228.66;;;26.12;61.54
81997;BME280;71500;50.806;8.774;2023-08-21T12:03:57;100226.61;;;26.11;61.11
81997;BME280;71500;50.806;8.774;2023-08-21T12:06:28;100222.20;;;26.10;61.92
81997;BME280;71500;50.806;8.774;2023-08-21T12:09:03;100220.05;;;26.07;62.54
81997;BME280;71500;50.806;8.774;2023-08-21T12:11:34;100216.37;;;26.04;62.56
81997;BME280;71500;50.806;8.774;2023-08-21T12:14:08;100221.27;;;26.00;61.91
81997;BME280;71500;50.806;8.774;2023-08-21T12:16:39;100219.16;;;26.01;60.59
81997;BME280;71500;50.806;8.774;2023-08-21T12:19:11;100218.43;;;26.05;60.59
81997;BME280;71500;50.806;8.774;2023-08-21T12:21:44;100213.52;;;26.08;61.99
81997;BME280;71500;50.806;8.774;2023-08-21T12:24:15;100211.46;;;26.10;60.10
81997;BME280;71500;50.806;8.774;2023-08-21T12:26:47;100214.10;;;26.18;60.46
81997;BME280;71500;50.806;8.774;2023-08-21T12:29:20;100211.50;;;26.22;60.99
81997;BME280;71500;50.806;8.774;2023-08-21T12:31:51;100207.93;;;26.23;61.50
81997;BME280;71500;50.806;8.774;2023-08-21T12:34:23;100208.09;;;26.23;61.29
81997;BME280;71500;50.806;8.774;2023-08-21T12:36:54;100205.33;;;26.23;61.07
81997;BME280;71500;50.806;8.774;2023-08-21T12:39:25;100203.80;;;26.20;61.80
81997;BME280;71500;50.806;8.774;2023-08-21T12:41:56;100196.56;;;26.17;61.09
81997;BME280;71500;50.806;8.774;2023-08-21T12:44:28;100195.30;;;26.17;59.71
81997;BME280;71500;50.806;8.774;2023-08-21T12:46:59;100195.64;;;26.21;60.08
81997;BME280;71500;50.806;8.774;2023-08-21T12:49:31;100193.45;;;26.24;59.90
81997;BME280;71500;50.806;8.774;2023-08-21T12:52:02;100189.21;;;26.32;59.12
81997;BME280;71500;50.806;8.774;2023-08-21T12:54:36;100189.03;;;26.40;59.71
81997;BME280;71500;50.806;8.774;2023-08-21T12:57:08;100188.27;;;26.48;59.23
81997;BME280;71500;50.806;8.774;2023-08-21T12:59:41;100191.56;;;26.56;59.70
81997;BME280;71500;50.806;8.774;2023-08-21T13:02:13;100197.02;;;26.63;58.60
81997;BME280;71500;50.806;8.774;2023-08-21T13:04:44;100193.19;;;26.69;59.44
81997;BME280;71500;50.806;8.774;2023-08-21T13:07:15;100190.67;;;26.69;59.10
81997;BME280;71500;50.806;8.774;2023-08-21T13:09:48;100190.02;;;26.74;58.49
81997;BME280;71500;50.806;8.774;2023-08-21T13:12:19;100194.52;;;26.78;58.56
81997;BME280;71500;50.806;8.774;2023-08-21T13:14:50;100189.58;;;26.81;59.45
81997;BME280;71500;50.806;8.774;2023-08-21T13:17:23;100184.87;;;26.82;59.40